Time;durP1;ratioP1;P1;durP2;ratioP2;P2;SDS_P1;SDS_P2;PMS_P1;PMS_P2;Temp;Humidity;BMP_temperature;BMP_pressure;BME280_temperature;BME280_humidity;BME280_pressure;Samples;Min_cycle;Max_cycle;Signal;HPM_P1;HPM_P2
2021/12/10 00:00:58;;;;;;;62.00;33.17;;;;;;;1.67;99.43;99970.63;5035067;28;20319;-55
2021/12/10 00:03:27;;;;;;;61.90;33.27;;;;;;;1.32;99.88;99965.50;5034152;28;20289;-53
2021/12/10 00:05:57;;;;;;;57.57;33.30;;;;;;;1.85;96.91;99959.78;5034234;28;20321;-53
2021/12/10 00:08:26;;;;;;;66.33;34.83;;;;;;;1.46;97.94;99957.19;5033424;28;20263;-54
2021/12/10 00:10:56;;;;;;;57.90;33.53;;;;;;;1.26;100.00;99947.25;5039624;28;20262;-53
2021/12/10 00:13:23;;;;;;;62.93;35.17;;;;;;;1.28;97.65;99947.31;5034911;28;20263;-56
2021/12/10 00:15:53;;;;;;;61.20;34.47;;;;;;;1.24;100.00;99946.38;5033282;28;20255;-54
2021/12/10 00:18:20;;;;;;;63.30;35.40;;;;;;;1.31;98.08;99955.16;5032038;28;20331;-53
2021/12/10 00:20:49;;;;;;;65.80;35.27;;;;;;;1.48;99.50;99947.78;5031759;28;20262;-54
2021/12/10 00:23:19;;;;;;;61.70;35.07;;;;;;;1.50;98.13;99941.78;5032433;28;20309;-53
2021/12/10 00:25:49;;;;;;;65.77;37.07;;;;;;;1.59;98.49;99938.53;5031743;28;20251;-53
2021/12/10 00:28:22;;;;;;;62.20;33.37;;;;;;;2.12;96.73;99931.91;5032031;28;20271;-54
2021/12/10 00:31:01;;;;;;;59.73;33.63;;;;;;;1.73;95.48;99931.94;5032878;28;20297;-55
2021/12/10 00:33:30;;;;;;;59.00;33.03;;;;;;;1.26;96.34;99936.91;5029728;28;20620;-54
2021/12/10 00:35:56;;;;;;;62.47;35.27;;;;;;;0.97;99.17;99935.34;5031043;28;20259;-53
2021/12/10 00:38:23;;;;;;;58.30;35.87;;;;;;;0.78;99.61;99929.72;5032195;28;20285;-54
2021/12/10 00:40:51;;;;;;;65.13;33.73;;;;;;;0.69;100.00;99932.06;5031425;28;20353;-53
2021/12/10 00:43:19;;;;;;;60.37;34.63;;;;;;;0.41;100.00;99933.94;5026797;28;20265;-55
2021/12/10 00:45:46;;;;;;;67.57;35.03;;;;;;;0.26;100.00;99937.81;5038934;28;20746;-52
2021/12/10 00:48:12;;;;;;;68.57;35.87;;;;;;;0.27;100.00;99943.00;5035276;28;21087;-59
2021/12/10 00:50:41;;;;;;;58.40;35.50;;;;;;;0.10;100.00;99936.50;5031383;28;20258;-52
2021/12/10 00:53:08;;;;;;;67.13;33.97;;;;;;;-0.04;100.00;99929.25;5033178;28;20302;-55
2021/12/10 00:55:34;;;;;;;74.17;38.80;;;;;;;-0.05;100.00;99924.06;5033531;28;20639;-54
2021/12/10 00:58:01;;;;;;;71.83;39.67;;;;;;;-0.09;100.00;99922.22;5033398;28;20252;-53
2021/12/10 01:00:32;;;;;;;60.67;35.60;;;;;;;-0.16;100.00;99921.16;5024328;28;20960;-53
2021/12/10 01:02:59;;;;;;;58.47;34.60;;;;;;;-0.16;100.00;99916.00;5035837;28;20253;-53
2021/12/10 01:05:25;;;;;;;60.57;35.80;;;;;;;0.30;100.00;99904.38;5040686;28;20548;-54
2021/12/10 01:07:52;;;;;;;66.63;36.73;;;;;;;0.95;100.00;99909.50;5038542;28;20254;-55
2021/12/10 01:10:22;;;;;;;69.27;36.57;;;;;;;0.81;100.00;99906.56;5037957;28;20288;-53
2021/12/10 01:12:51;;;;;;;70.30;35.30;;;;;;;0.55;100.00;99910.19;5033589;28;20304;-55
2021/12/10 01:15:45;;;;;;;65.77;37.33;;;;;;;0.45;100.00;99909.94;5034898;28;20680;-52
2021/12/10 01:23:53;;;;;;;59.27;36.00;;;;;;;0.21;100.00;99891.22;5044623;28;20241;-53
2021/12/10 01:26:38;;;;;;;73.50;37.33;;;;;;;-0.05;100.00;99873.31;5032794;28;20236;-52
2021/12/10 01:29:05;;;;;;;72.33;38.30;;;;;;;-0.05;100.00;99873.31;5019878;28;20241;-53
2021/12/10 01:31:32;;;;;;;68.37;36.00;;;;;;;0.45;100.00;99876.34;5018643;28;20342;-53
2021/12/10 01:34:00;;;;;;;70.63;36.60;;;;;;;0.41;100.00;99884.88;5020772;28;20282;-55
2021/12/10 01:36:26;;;;;;;73.33;37.70;;;;;;;0.66;100.00;99864.81;5015808;28;20331;-52
2021/12/10 01:38:54;;;;;;;67.43;37.97;;;;;;;0.43;100.00;99857.41;5021295;28;20269;-54
2021/12/10 01:41:24;;;;;;;62.57;34.63;;;;;;;0.64;100.00;99854.47;5027060;28;20665;-53
2021/12/10 01:43:52;;;;;;;67.60;36.10;;;;;;;0.88;100.00;99851.63;5042422;28;20242;-55
2021/12/10 01:46:25;;;;;;;69.37;36.60;;;;;;;0.75;100.00;99839.22;5030554;28;20245;-56
2021/12/10 01:48:55;;;;;;;55.17;33.70;;;;;;;0.61;100.00;99846.66;5027787;28;20231;-54
2021/12/10 01:51:27;;;;;;;64.43;36.17;;;;;;;0.62;100.00;99843.22;5040740;28;20301;-54
2021/12/10 01:53:56;;;;;;;61.37;34.90;;;;;;;0.49;100.00;99841.16;5041420;28;20316;-54
2021/12/10 01:56:27;;;;;;;65.57;35.00;;;;;;;0.39;100.00;99847.81;5038793;28;20307;-54
2021/12/10 01:58:55;;;;;;;64.10;34.13;;;;;;;0.32;100.00;99839.91;5034371;28;20249;-54
2021/12/10 02:01:24;;;;;;;63.47;34.33;;;;;;;0.10;100.00;99843.59;5031307;28;20256;-54
2021/12/10 02:03:52;;;;;;;58.53;34.20;;;;;;;0.08;100.00;99827.22;5036691;28;20673;-52
2021/12/10 02:06:18;;;;;;;62.63;35.30;;;;;;;-0.04;100.00;99817.44;5031069;28;20303;-53
2021/12/10 02:08:47;;;;;;;64.80;35.37;;;;;;;0.04;100.00;99815.94;5040121;28;20263;-53
2021/12/10 02:11:15;;;;;;;60.90;35.30;;;;;;;0.23;100.00;99807.81;5033232;28;20267;-53
2021/12/10 02:13:42;;;;;;;67.67;34.57;;;;;;;0.66;100.00;99808.88;5038711;28;20230;-53
2021/12/10 02:16:09;;;;;;;65.50;35.97;;;;;;;0.35;100.00;99801.22;5033683;28;20233;-52
2021/12/10 02:18:36;;;;;;;61.50;35.13;;;;;;;0.37;100.00;99800.44;5037038;28;20246;-54
2021/12/10 02:21:16;;;;;;;62.83;35.40;;;;;;;0.06;100.00;99808.22;5042874;28;20257;-53
2021/12/10 02:23:45;;;;;;;58.23;34.67;;;;;;;0.04;100.00;99799.59;5033523;28;20223;-53
2021/12/10 02:26:14;;;;;;;61.73;35.37;;;;;;;-0.08;100.00;99801.00;5034255;28;20664;-55
2021/12/10 02:28:41;;;;;;;60.90;35.73;;;;;;;-0.18;100.00;99799.00;5037205;28;20262;-53
2021/12/10 02:31:08;;;;;;;58.93;34.07;;;;;;;-0.20;100.00;99789.50;5037239;28;20696;-55
2021/12/10 02:33:36;;;;;;;57.47;33.10;;;;;;;-0.22;100.00;99781.69;5042531;28;20238;-53
2021/12/10 02:36:03;;;;;;;55.83;32.00;;;;;;;-0.23;100.00;99782.53;5042274;28;20309;-53
2021/12/10 02:38:31;;;;;;;50.53;30.47;;;;;;;-0.18;100.00;99780.94;5035350;28;20270;-53
2021/12/10 02:40:57;;;;;;;56.07;32.33;;;;;;;-0.17;100.00;99780.13;5042002;28;20234;-53
2021/12/10 02:43:24;;;;;;;61.27;34.70;;;;;;;-0.22;100.00;99771.38;5039889;28;20266;-54
2021/12/10 02:45:53;;;;;;;61.03;32.23;;;;;;;-0.18;100.00;99768.03;5038387;28;20239;-53
2021/12/10 02:48:20;;;;;;;57.23;32.40;;;;;;;-0.09;100.00;99763.13;5036794;28;20732;-52
2021/12/10 02:50:47;;;;;;;52.57;31.07;;;;;;;-0.15;100.00;99767.25;5036621;28;20231;-53
2021/12/10 02:53:16;;;;;;;58.43;32.13;;;;;;;-0.13;100.00;99756.16;5042148;28;20249;-55
2021/12/10 02:55:44;;;;;;;59.90;33.33;;;;;;;-0.26;100.00;99759.25;5041843;28;20307;-54
2021/12/10 02:58:14;;;;;;;58.17;33.70;;;;;;;-0.26;100.00;99754.09;5043010;28;20299;-53
2021/12/10 03:00:45;;;;;;;61.10;33.33;;;;;;;0.04;100.00;99745.41;5041343;28;20248;-53
2021/12/10 03:03:11;;;;;;;56.70;33.83;;;;;;;0.11;100.00;99739.56;5036538;28;20298;-54
2021/12/10 03:05:38;;;;;;;58.53;33.13;;;;;;;0.55;100.00;99747.47;5040898;28;20263;-53
2021/12/10 03:08:05;;;;;;;57.50;31.53;;;;;;;1.62;100.00;99742.88;5043737;28;20234;-53
2021/12/10 03:10:32;;;;;;;61.03;31.97;;;;;;;1.85;98.02;99738.09;5039673;28;20312;-54
2021/12/10 03:13:00;;;;;;;53.87;30.30;;;;;;;1.23;99.41;99730.03;5032098;28;21257;-53
2021/12/10 03:15:27;;;;;;;56.30;32.13;;;;;;;0.89;99.55;99725.88;5039135;28;20262;-52
2021/12/10 03:17:54;;;;;;;56.00;31.43;;;;;;;1.16;100.00;99723.00;5039051;28;20251;-57
2021/12/10 03:20:24;;;;;;;58.03;31.43;;;;;;;1.32;100.00;99726.75;5049555;28;20341;-52
2021/12/10 03:22:51;;;;;;;66.10;36.27;;;;;;;0.85;100.00;99721.47;5051934;28;20272;-55
2021/12/10 03:25:18;;;;;;;53.33;30.23;;;;;;;0.81;100.00;99720.53;5046568;28;20289;-53
2021/12/10 03:27:45;;;;;;;58.20;31.77;;;;;;;0.44;100.00;99711.94;5048388;28;20261;-55
2021/12/10 03:30:16;;;;;;;53.30;31.07;;;;;;;0.40;100.00;99717.03;5046770;28;20259;-53
2021/12/10 03:32:43;;;;;;;57.13;33.53;;;;;;;0.61;100.00;99707.19;5045395;28;20234;-54
2021/12/10 03:35:14;;;;;;;56.07;32.70;;;;;;;0.72;100.00;99704.81;5047408;28;20715;-54
2021/12/10 03:37:40;;;;;;;54.37;30.67;;;;;;;0.47;100.00;99709.44;5045306;28;20253;-54
2021/12/10 03:40:10;;;;;;;54.53;29.67;;;;;;;0.33;100.00;99703.09;5052863;28;20268;-54
2021/12/10 03:42:37;;;;;;;51.20;30.47;;;;;;;1.05;100.00;99693.44;5055242;28;21046;-54
2021/12/10 03:45:04;;;;;;;59.07;32.43;;;;;;;1.34;98.20;99691.47;5053504;28;20812;-53
2021/12/10 03:47:32;;;;;;;52.03;30.33;;;;;;;2.01;96.97;99684.91;5048216;28;20235;-55
2021/12/10 03:49:58;;;;;;;60.03;32.07;;;;;;;1.78;96.42;99684.50;5053076;28;20234;-55
2021/12/10 03:52:24;;;;;;;56.90;32.80;;;;;;;1.64;96.94;99681.66;5056894;28;20244;-55
2021/12/10 03:54:51;;;;;;;62.80;34.47;;;;;;;1.43;97.71;99679.56;5057095;28;20242;-56
2021/12/10 03:57:19;;;;;;;63.77;33.83;;;;;;;1.04;100.00;99678.78;5057872;28;20797;-54
2021/12/10 03:59:45;;;;;;;50.73;31.57;;;;;;;1.39;98.57;99675.16;5052730;28;20239;-53
2021/12/10 04:02:12;;;;;;;56.03;31.63;;;;;;;1.15;99.09;99672.13;5052943;28;20599;-54
2021/12/10 04:04:42;;;;;;;57.40;32.90;;;;;;;1.01;100.00;99665.81;5050495;28;20602;-53
2021/12/10 04:07:11;;;;;;;55.23;32.53;;;;;;;1.45;100.00;99673.56;5051182;28;20235;-54
2021/12/10 04:09:38;;;;;;;62.80;33.97;;;;;;;1.34;100.00;99666.47;5052930;28;20738;-54
2021/12/10 04:12:07;;;;;;;54.37;32.23;;;;;;;0.87;98.30;99666.38;5045011;28;20239;-55
2021/12/10 04:14:33;;;;;;;62.37;34.20;;;;;;;1.33;100.00;99659.53;5044598;28;20835;-55
2021/12/10 04:17:00;;;;;;;52.63;33.03;;;;;;;1.30;99.11;99666.38;5043744;28;20256;-55
2021/12/10 04:19:28;;;;;;;65.27;33.90;;;;;;;1.65;97.92;99656.66;5036362;28;20304;-55
2021/12/10 04:21:57;;;;;;;63.17;34.13;;;;;;;1.43;98.15;99660.59;5049661;28;20289;-54
2021/12/10 04:24:25;;;;;;;56.17;31.30;;;;;;;0.93;99.93;99658.78;5042168;28;20257;-55
2021/12/10 04:26:52;;;;;;;56.43;32.23;;;;;;;1.05;99.34;99662.44;5035538;28;20254;-54
2021/12/10 04:29:20;;;;;;;55.77;32.80;;;;;;;1.60;98.67;99658.31;5050642;28;20253;-59
2021/12/10 04:31:46;;;;;;;58.70;32.50;;;;;;;1.60;95.13;99666.06;5056357;28;20293;-54
2021/12/10 04:34:13;;;;;;;58.53;33.17;;;;;;;1.60;97.15;99664.34;5051660;28;20247;-55
2021/12/10 04:36:40;;;;;;;63.67;33.67;;;;;;;1.30;95.69;99659.50;5041010;28;20231;-55
2021/12/10 04:39:08;;;;;;;54.07;32.43;;;;;;;1.44;99.58;99667.53;5044977;28;20324;-53
2021/12/10 04:41:35;;;;;;;54.10;32.47;;;;;;;1.19;99.52;99666.16;5035467;28;20239;-55
2021/12/10 04:44:01;;;;;;;61.73;33.17;;;;;;;1.21;98.64;99669.66;5035140;28;20910;-54
2021/12/10 04:46:28;;;;;;;62.30;35.07;;;;;;;0.69;100.00;99664.28;5039636;28;20284;-54
2021/12/10 04:48:58;;;;;;;57.13;33.73;;;;;;;0.57;100.00;99663.19;5041734;28;20657;-53
2021/12/10 04:51:28;;;;;;;59.17;32.90;;;;;;;0.38;100.00;99667.91;5038800;28;20242;-56
2021/12/10 04:53:56;;;;;;;57.27;33.50;;;;;;;0.39;100.00;99674.84;5048262;28;20300;-52
2021/12/10 04:56:24;;;;;;;62.57;35.63;;;;;;;0.34;100.00;99670.41;5047994;28;20747;-53
2021/12/10 04:58:51;;;;;;;62.93;32.67;;;;;;;0.60;100.00;99668.41;5048478;28;20238;-54
2021/12/10 05:01:17;;;;;;;64.53;35.73;;;;;;;0.50;100.00;99672.50;5047584;28;20285;-53
2021/12/10 05:03:44;;;;;;;65.53;33.80;;;;;;;0.36;100.00;99672.19;5040742;28;20295;-53
2021/12/10 05:06:10;;;;;;;62.03;33.83;;;;;;;0.37;100.00;99671.34;5043428;28;20235;-54
2021/12/10 05:08:38;;;;;;;63.00;34.47;;;;;;;0.37;100.00;99671.34;5044758;28;20273;-54
2021/12/10 05:11:07;;;;;;;68.27;35.77;;;;;;;0.45;100.00;99668.94;5043341;28;20224;-53
2021/12/10 05:13:35;;;;;;;66.20;36.43;;;;;;;0.25;100.00;99660.75;5035513;28;20644;-54
2021/12/10 05:16:02;;;;;;;64.33;35.00;;;;;;;0.29;100.00;99652.25;5044343;28;20238;-54
2021/12/10 05:18:31;;;;;;;68.13;36.60;;;;;;;0.54;100.00;99652.78;5032996;28;20244;-56
2021/12/10 05:20:58;;;;;;;58.30;33.47;;;;;;;0.89;100.00;99651.81;5039229;28;20735;-53
2021/12/10 05:23:25;;;;;;;66.23;34.93;;;;;;;0.63;100.00;99656.44;5032650;28;20235;-55
2021/12/10 05:25:52;;;;;;;65.57;36.17;;;;;;;0.70;100.00;99645.41;5045926;28;20259;-54
2021/12/10 05:28:19;;;;;;;57.93;32.87;;;;;;;0.76;100.00;99643.75;5037415;28;20235;-53
2021/12/10 05:30:47;;;;;;;65.53;34.87;;;;;;;0.73;100.00;99639.41;5040776;28;20290;-52
2021/12/10 05:33:17;;;;;;;65.83;35.00;;;;;;;0.54;100.00;99637.28;5040250;28;20817;-54
2021/12/10 05:35:45;;;;;;;56.30;36.17;;;;;;;0.42;100.00;99641.34;5035557;28;20279;-53
2021/12/10 05:38:12;;;;;;;73.57;39.50;;;;;;;0.26;100.00;99634.09;5043367;28;20337;-55
2021/12/10 05:40:38;;;;;;;73.70;38.13;;;;;;;0.17;100.00;99646.78;5038836;28;20301;-53
2021/12/10 05:43:05;;;;;;;68.63;38.30;;;;;;;0.15;100.00;99633.00;5037620;28;20231;-53
2021/12/10 05:45:31;;;;;;;67.37;36.83;;;;;;;0.18;100.00;99633.94;5041056;28;20305;-54
2021/12/10 05:47:59;;;;;;;71.27;38.37;;;;;;;0.18;100.00;99626.19;5037281;28;20248;-54
2021/12/10 05:50:27;;;;;;;68.97;35.57;;;;;;;0.13;100.00;99624.31;5038077;28;20270;-53
2021/12/10 05:52:54;;;;;;;62.37;33.80;;;;;;;0.12;100.00;99623.47;5035691;28;20254;-54
2021/12/10 05:55:22;;;;;;;62.27;35.00;;;;;;;0.12;100.00;99617.44;5043178;28;20236;-53
2021/12/10 05:57:49;;;;;;;59.93;34.03;;;;;;;0.09;100.00;99622.50;5035858;28;20599;-57
2021/12/10 06:00:18;;;;;;;65.27;36.67;;;;;;;0.21;100.00;99612.44;5043826;28;20257;-55
2021/12/10 06:02:44;;;;;;;57.73;33.27;;;;;;;0.13;100.00;99614.00;5041095;28;20322;-56
2021/12/10 06:05:12;;;;;;;60.80;34.70;;;;;;;0.16;100.00;99608.91;5034845;28;20328;-53
2021/12/10 06:07:39;;;;;;;68.93;37.20;;;;;;;0.27;100.00;99610.00;5044780;28;20289;-55
2021/12/10 06:10:07;;;;;;;65.27;36.17;;;;;;;0.27;100.00;99607.44;5041399;28;21002;-52
2021/12/10 06:12:33;;;;;;;63.67;36.77;;;;;;;0.59;100.00;99610.69;5034429;28;20242;-53
2021/12/10 06:14:59;;;;;;;61.47;34.87;;;;;;;0.85;100.00;99608.66;5044921;28;20230;-52
2021/12/10 06:17:26;;;;;;;65.37;36.20;;;;;;;0.87;100.00;99606.09;5038671;28;20238;-52
2021/12/10 06:19:52;;;;;;;66.77;36.13;;;;;;;0.77;100.00;99611.91;5034097;28;20291;-54
2021/12/10 06:22:20;;;;;;;67.37;35.07;;;;;;;1.27;100.00;99612.91;5043090;28;20226;-54
2021/12/10 06:24:46;;;;;;;57.73;34.20;;;;;;;1.32;100.00;99605.22;5036520;28;20288;-53
2021/12/10 06:27:13;;;;;;;64.37;35.57;;;;;;;1.53;100.00;99599.56;5029221;28;20259;-54
2021/12/10 06:29:41;;;;;;;72.13;39.10;;;;;;;1.37;100.00;99609.66;5044263;28;20317;-53
2021/12/10 06:32:08;;;;;;;65.63;35.33;;;;;;;1.71;100.00;99599.84;5041627;28;20238;-53
2021/12/10 06:34:35;;;;;;;66.07;36.07;;;;;;;1.95;100.00;99598.50;5039788;28;21623;-55
2021/12/10 06:37:01;;;;;;;66.90;37.17;;;;;;;1.58;100.00;99597.91;5036478;28;20300;-53
2021/12/10 06:39:29;;;;;;;79.50;41.20;;;;;;;1.59;99.75;99594.50;5042075;28;20980;-55
2021/12/10 06:41:56;;;;;;;71.67;37.37;;;;;;;1.32;100.00;99600.06;5039963;28;20297;-54
2021/12/10 06:44:23;;;;;;;63.00;37.40;;;;;;;0.95;100.00;99600.25;5031770;28;20633;-53
2021/12/10 06:46:51;;;;;;;73.97;39.63;;;;;;;1.11;100.00;99605.69;5043225;28;20265;-53
2021/12/10 06:49:18;;;;;;;64.73;38.67;;;;;;;1.52;100.00;99592.66;5041366;28;20770;-57
2021/12/10 06:51:45;;;;;;;71.43;36.70;;;;;;;1.50;100.00;99592.59;5037153;28;20312;-53
2021/12/10 06:54:12;;;;;;;64.50;37.63;;;;;;;1.60;100.00;99594.50;5044385;28;20289;-53
2021/12/10 06:56:40;;;;;;;65.83;38.10;;;;;;;1.45;100.00;99595.97;5043759;28;20878;-54
2021/12/10 06:59:08;;;;;;;69.97;36.87;;;;;;;1.37;100.00;99594.13;5042496;28;20226;-55
2021/12/10 07:01:38;;;;;;;64.60;35.40;;;;;;;1.73;100.00;99590.41;5040870;28;20230;-53
2021/12/10 07:04:05;;;;;;;69.00;37.77;;;;;;;1.97;98.81;99587.34;5039169;28;20232;-55
2021/12/10 07:06:32;;;;;;;73.73;39.43;;;;;;;2.19;99.23;99578.16;5041894;28;20239;-53
2021/12/10 07:09:00;;;;;;;74.23;38.93;;;;;;;2.32;97.31;99585.25;5046874;28;20222;-53
2021/12/10 07:11:27;;;;;;;64.83;37.30;;;;;;;2.51;97.16;99585.47;5034875;28;20243;-53
2021/12/10 07:13:57;;;;;;;64.60;37.33;;;;;;;2.47;94.60;99588.88;5045260;28;20251;-54
2021/12/10 07:16:25;;;;;;;62.73;38.37;;;;;;;2.57;95.49;99586.44;5039781;28;20769;-55
2021/12/10 07:18:52;;;;;;;68.00;37.43;;;;;;;1.92;97.43;99594.13;5031842;28;20226;-55
2021/12/10 07:21:19;;;;;;;73.03;37.60;;;;;;;1.96;96.49;99585.56;5043070;28;20258;-52
2021/12/10 07:23:45;;;;;;;72.20;36.83;;;;;;;2.32;96.11;99579.19;5042580;28;20258;-52
2021/12/10 07:26:14;;;;;;;66.27;37.40;;;;;;;1.97;98.26;99591.66;5045796;28;20258;-55
2021/12/10 07:28:40;;;;;;;61.80;34.80;;;;;;;2.42;95.29;99580.16;5035904;28;20273;-54
2021/12/10 07:31:09;;;;;;;70.33;38.07;;;;;;;2.41;96.52;99574.13;5042000;28;20330;-55
2021/12/10 07:33:36;;;;;;;69.43;37.13;;;;;;;2.11;97.61;99577.19;5035447;28;20235;-54
2021/12/10 07:36:03;;;;;;;74.47;40.17;;;;;;;1.80;98.06;99579.31;5041092;28;20255;-56
2021/12/10 07:38:30;;;;;;;77.57;38.70;;;;;;;1.83;96.63;99571.59;5046521;28;20281;-53
2021/12/10 07:40:56;;;;;;;65.77;37.23;;;;;;;2.06;96.36;99566.75;5044754;28;20254;-53
2021/12/10 07:43:23;;;;;;;61.30;36.53;;;;;;;2.19;97.17;99569.53;5036275;28;20247;-54
2021/12/10 07:45:51;;;;;;;61.70;35.47;;;;;;;1.87;97.21;99570.78;5039916;28;20316;-53
2021/12/10 07:48:21;;;;;;;61.13;37.33;;;;;;;1.77;97.45;99566.31;5032859;28;20242;-55
2021/12/10 07:50:55;;;;;;;64.13;36.13;;;;;;;1.60;99.41;99565.19;5040035;28;20306;-54
2021/12/10 07:53:27;;;;;;;66.37;37.60;;;;;;;1.18;100.00;99561.03;5039170;28;20705;-53
2021/12/10 07:55:55;;;;;;;65.97;38.93;;;;;;;1.22;100.00;99560.22;5035363;28;20660;-55
2021/12/10 07:58:22;;;;;;;66.27;37.83;;;;;;;1.85;100.00;99545.72;5044779;28;20249;-53
2021/12/10 08:00:50;;;;;;;63.60;35.47;;;;;;;2.21;98.87;99547.09;5039777;28;20642;-54
2021/12/10 08:03:16;;;;;;;67.93;36.77;;;;;;;1.54;100.00;99549.56;5042492;28;20239;-55
2021/12/10 08:05:45;;;;;;;66.33;36.23;;;;;;;1.85;100.00;99541.41;5039697;28;20775;-53
2021/12/10 08:08:11;;;;;;;63.70;38.80;;;;;;;1.64;99.70;99539.38;5046918;28;20237;-54
2021/12/10 08:10:39;;;;;;;66.17;37.77;;;;;;;2.20;97.59;99533.28;5046245;28;20239;-54
2021/12/10 08:13:06;;;;;;;68.30;36.33;;;;;;;2.79;95.76;99522.75;5043583;28;20255;-55
2021/12/10 08:15:33;;;;;;;67.73;38.87;;;;;;;2.10;98.28;99524.50;5048685;28;20282;-55
2021/12/10 08:18:00;;;;;;;68.77;37.97;;;;;;;2.04;97.00;99523.59;5039225;28;20262;-55
2021/12/10 08:20:28;;;;;;;72.47;39.13;;;;;;;2.68;96.00;99526.09;5036326;28;20235;-54
2021/12/10 08:22:56;;;;;;;69.00;35.67;;;;;;;2.18;95.37;99524.63;5054521;28;20243;-54
2021/12/10 08:25:25;;;;;;;65.17;36.77;;;;;;;2.35;97.98;99512.78;5072059;22;20287;-56
2021/12/10 08:27:52;;;;;;;65.07;37.63;;;;;;;1.96;95.49;99514.81;5066822;28;20691;-57
2021/12/10 08:30:21;;;;;;;60.93;34.47;;;;;;;1.99;98.68;99509.69;5059063;28;20255;-56
2021/12/10 08:32:47;;;;;;;62.53;35.67;;;;;;;2.18;99.20;99508.22;5048345;28;20240;-57
2021/12/10 08:35:16;;;;;;;61.83;35.93;;;;;;;2.40;94.90;99510.22;5052616;28;20239;-57
2021/12/10 08:37:43;;;;;;;63.73;37.17;;;;;;;2.49;96.86;99499.09;5050526;28;20234;-57
2021/12/10 08:40:15;;;;;;;62.73;36.27;;;;;;;2.53;97.15;99495.72;5044760;28;20617;-55
2021/12/10 08:42:42;;;;;;;62.67;35.90;;;;;;;2.48;95.87;99493.03;5048420;28;20389;-55
2021/12/10 08:45:09;;;;;;;67.63;37.63;;;;;;;1.89;96.69;99496.63;5050473;28;20715;-55
2021/12/10 08:47:36;;;;;;;66.60;38.27;;;;;;;1.76;98.26;99493.84;5046169;28;20239;-54
2021/12/10 08:50:04;;;;;;;69.87;37.13;;;;;;;1.92;100.00;99495.78;5045194;28;20273;-54
2021/12/10 08:52:31;;;;;;;77.00;40.63;;;;;;;1.56;99.12;99490.97;5042404;28;20256;-53
2021/12/10 08:54:57;;;;;;;76.67;39.57;;;;;;;1.90;100.00;99482.84;5048245;28;20304;-53
2021/12/10 08:57:26;;;;;;;75.67;39.17;;;;;;;1.79;98.62;99479.25;5048805;28;20257;-55
2021/12/10 08:59:53;;;;;;;77.93;38.23;;;;;;;1.51;98.88;99482.25;5048098;28;20218;-55
2021/12/10 09:02:20;;;;;;;68.63;38.33;;;;;;;1.42;100.00;99478.69;5042040;28;21085;-54
2021/12/10 09:04:47;;;;;;;64.83;37.37;;;;;;;1.82;100.00;99484.44;5045563;28;20250;-54
2021/12/10 09:07:15;;;;;;;74.40;38.10;;;;;;;1.70;100.00;99479.09;5041841;28;20621;-54
2021/12/10 09:09:44;;;;;;;73.43;41.10;;;;;;;1.56;100.00;99478.91;5039141;28;20259;-54
2021/12/10 09:12:14;;;;;;;73.17;37.70;;;;;;;1.90;100.00;99472.50;5036219;28;20626;-54
2021/12/10 09:14:45;;;;;;;78.17;39.10;;;;;;;1.94;98.59;99481.16;5040215;28;20237;-54
2021/12/10 09:17:13;;;;;;;67.93;38.40;;;;;;;2.53;97.98;99478.44;5042226;28;20251;-55
2021/12/10 09:19:41;;;;;;;66.33;36.37;;;;;;;2.18;97.21;99466.78;5045920;28;20254;-54
2021/12/10 09:22:08;;;;;;;81.07;39.67;;;;;;;1.95;98.64;99471.69;5033425;28;20243;-55
2021/12/10 09:24:36;;;;;;;65.97;37.13;;;;;;;2.37;96.64;99463.56;5044076;28;20242;-53
2021/12/10 09:27:03;;;;;;;67.67;37.90;;;;;;;2.35;95.48;99467.84;5046819;28;20677;-54
2021/12/10 09:29:31;;;;;;;69.37;37.53;;;;;;;2.19;97.16;99459.03;5049747;28;20254;-53
2021/12/10 09:32:00;;;;;;;69.00;37.13;;;;;;;2.16;97.97;99466.78;5041000;28;20242;-55
2021/12/10 09:34:26;;;;;;;69.80;37.47;;;;;;;2.09;99.22;99467.56;5043933;28;20239;-55
2021/12/10 09:36:54;;;;;;;74.50;40.27;;;;;;;2.05;98.87;99461.47;5044892;28;20264;-55
2021/12/10 09:39:21;;;;;;;74.77;40.83;;;;;;;2.06;98.77;99462.34;5042379;28;20241;-54
2021/12/10 09:41:49;;;;;;;78.03;41.17;;;;;;;1.81;99.95;99464.59;5044045;28;20238;-54
2021/12/10 09:44:17;;;;;;;63.63;36.10;;;;;;;2.28;99.89;99460.88;5043414;28;20367;-55
2021/12/10 09:46:44;;;;;;;74.73;39.10;;;;;;;2.33;97.35;99462.66;5036602;28;20680;-54
2021/12/10 09:49:13;;;;;;;71.33;39.70;;;;;;;2.28;97.43;99464.34;5043675;28;20254;-54
2021/12/10 09:51:45;;;;;;;68.63;37.17;;;;;;;2.18;99.13;99459.91;5042979;28;20672;-55
2021/12/10 09:54:16;;;;;;;73.90;40.17;;;;;;;2.05;98.52;99465.78;5041779;28;20754;-54
2021/12/10 09:56:47;;;;;;;68.73;35.93;;;;;;;2.17;99.67;99468.50;5042801;28;21953;-55
2021/12/10 09:59:14;;;;;;;72.60;38.27;;;;;;;1.99;99.74;99470.88;5041371;28;24094;-56
2021/12/10 10:01:42;;;;;;;82.00;49.28;;;;;;;1.96;98.20;99466.50;5034950;28;20864;-53
2021/12/10 10:04:10;;;;;;;70.57;42.03;;;;;;;1.59;100.00;99465.16;5041941;28;20243;-54
2021/12/10 10:06:42;;;;;;;64.70;36.20;;;;;;;2.04;100.00;99464.03;5045348;28;20617;-52
2021/12/10 10:09:11;;;;;;;75.97;39.60;;;;;;;2.07;99.16;99464.06;5042782;28;20250;-51
2021/12/10 10:11:37;;;;;;;74.50;38.87;;;;;;;2.12;98.48;99457.25;5039945;28;20295;-55
2021/12/10 10:14:04;;;;;;;71.90;36.97;;;;;;;2.58;97.29;99462.94;5044094;28;20253;-55
2021/12/10 10:16:34;;;;;;;77.67;41.07;;;;;;;2.03;97.32;99464.88;5045911;28;20253;-55
2021/12/10 10:19:01;;;;;;;77.80;40.13;;;;;;;1.73;97.86;99471.41;5045026;28;20601;-55
2021/12/10 10:21:29;;;;;;;77.90;42.50;;;;;;;1.42;100.00;99473.53;5054804;28;20234;-55
2021/12/10 10:23:57;;;;;;;68.43;40.43;;;;;;;1.53;100.00;99462.47;5043376;28;20703;-54
2021/12/10 10:26:31;;;;;;;75.33;40.17;;;;;;;1.41;100.00;99464.03;5043029;28;20833;-55
2021/12/10 10:28:58;;;;;;;72.03;37.83;;;;;;;1.53;100.00;99457.31;5040080;28;20244;-55
2021/12/10 10:31:25;;;;;;;73.77;42.17;;;;;;;1.47;100.00;99449.44;5054699;28;20238;-54
2021/12/10 10:33:55;;;;;;;68.57;39.43;;;;;;;1.25;100.00;99449.13;5042886;28;20230;-55
2021/12/10 10:36:26;;;;;;;73.63;40.83;;;;;;;1.19;100.00;99446.44;5037515;28;20259;-54
2021/12/10 10:38:53;;;;;;;72.40;41.10;;;;;;;1.55;100.00;99433.19;5043178;28;20622;-55
2021/12/10 10:41:23;;;;;;;70.70;36.20;;;;;;;2.23;100.00;99434.91;5041433;28;20270;-56
2021/12/10 10:43:51;;;;;;;71.67;37.10;;;;;;;2.16;100.00;99438.28;5045616;28;20259;-54
2021/12/10 10:46:17;;;;;;;71.10;37.57;;;;;;;1.88;100.00;99437.09;5047519;28;20270;-54
2021/12/10 10:48:48;;;;;;;66.73;36.67;;;;;;;1.70;100.00;99431.69;5045011;28;20254;-55
2021/12/10 10:51:17;;;;;;;67.67;36.07;;;;;;;1.67;100.00;99432.50;5041687;28;20672;-55
2021/12/10 10:53:45;;;;;;;74.43;39.13;;;;;;;1.52;100.00;99433.16;5041350;28;20235;-56
2021/12/10 10:56:14;;;;;;;72.60;40.10;;;;;;;1.43;100.00;99428.69;5039285;28;20609;-55
2021/12/10 10:58:45;;;;;;;74.07;38.50;;;;;;;1.42;100.00;99421.81;5042695;28;20226;-54
2021/12/10 11:01:22;;;;;;;73.43;39.13;;;;;;;1.20;100.00;99435.25;5043438;28;20251;-55
2021/12/10 11:03:53;;;;;;;68.87;37.13;;;;;;;1.00;100.00;99439.25;5044980;28;20718;-54
2021/12/10 11:06:25;;;;;;;63.90;35.93;;;;;;;0.91;100.00;99440.84;5042899;28;20238;-54
2021/12/10 11:08:54;;;;;;;73.40;38.90;;;;;;;1.26;100.00;99440.50;5050222;28;20298;-54
2021/12/10 11:11:25;;;;;;;73.57;40.37;;;;;;;1.11;100.00;99441.16;5041589;28;20270;-55
2021/12/10 11:14:04;;;;;;;75.00;43.20;;;;;;;1.24;100.00;99436.19;5041094;28;20409;-55
2021/12/10 11:16:33;;;;;;;69.37;38.27;;;;;;;1.25;100.00;99428.44;5045005;28;20254;-55
2021/12/10 11:19:06;;;;;;;68.67;37.83;;;;;;;1.18;100.00;99432.63;5036565;28;20723;-55
2021/12/10 11:21:38;;;;;;;59.13;32.97;;;;;;;1.27;100.00;99437.09;5038258;28;20842;-56
2021/12/10 11:24:10;;;;;;;65.27;36.53;;;;;;;1.35;100.00;99429.44;5040962;28;20266;-54
2021/12/10 11:26:47;;;;;;;63.90;35.57;;;;;;;1.44;100.00;99429.59;5044643;28;20264;-55
2021/12/10 11:29:36;;;;;;;54.77;33.43;;;;;;;1.97;100.00;99431.19;5042116;28;21057;-55